sensor_id;sensor_type;location;lat;lon;timestamp;temperature;humidity
43089;DHT22;28709;52.030;5.652;2023-02-28T00:02:14;1.00;99.90
43089;DHT22;28709;52.030;5.652;2023-02-28T00:04:43;1.00;99.90
43089;DHT22;28709;52.030;5.652;2023-02-28T00:07:08;1.00;99.90
43089;DHT22;28709;52.030;5.652;2023-02-28T00:09:34;1.10;99.90
43089;DHT22;28709;52.030;5.652;2023-02-28T00:12:00;1.10;99.90
43089;DHT22;28709;52.030;5.652;2023-02-28T00:14:25;1.20;99.90
43089;DHT22;28709;52.030;5.652;2023-02-28T00:16:51;1.20;99.90
43089;DHT22;28709;52.030;5.652;2023-02-28T00:19:16;1.20;99.90
43089;DHT22;28709;52.030;5.652;2023-02-28T00:21:42;1.30;99.90
43089;DHT22;28709;52.030;5.652;2023-02-28T00:24:08;1.30;99.90
43089;DHT22;28709;52.030;5.652;2023-02-28T00:26:33;1.40;99.90
43089;DHT22;28709;52.030;5.652;2023-02-28T00:28:59;1.40;99.90
43089;DHT22;28709;52.030;5.652;2023-02-28T00:31:25;1.50;99.90
43089;DHT22;28709;52.030;5.652;2023-02-28T00:33:50;1.50;99.90
43089;DHT22;28709;52.030;5.652;2023-02-28T00:36:17;1.60;99.90
43089;DHT22;28709;52.030;5.652;2023-02-28T00:38:42;1.60;99.90
43089;DHT22;28709;52.030;5.652;2023-02-28T00:41:09;1.60;99.90
43089;DHT22;28709;52.030;5.652;2023-02-28T00:43:37;1.70;99.90
43089;DHT22;28709;52.030;5.652;2023-02-28T00:46:03;1.70;99.90
43089;DHT22;28709;52.030;5.652;2023-02-28T00:48:30;1.70;99.90
43089;DHT22;28709;52.030;5.652;2023-02-28T00:50:55;1.70;99.90
43089;DHT22;28709;52.030;5.652;2023-02-28T00:53:21;1.70;99.90
43089;DHT22;28709;52.030;5.652;2023-02-28T00:55:49;1.70;99.90
43089;DHT22;28709;52.030;5.652;2023-02-28T00:58:14;1.70;99.90
43089;DHT22;28709;52.030;5.652;2023-02-28T01:00:40;1.70;99.90
43089;DHT22;28709;52.030;5.652;2023-02-28T01:03:06;1.70;99.90
43089;DHT22;28709;52.030;5.652;2023-02-28T01:05:31;1.70;99.90
43089;DHT22;28709;52.030;5.652;2023-02-28T01:07:57;1.80;99.90
43089;DHT22;28709;52.030;5.652;2023-02-28T01:10:23;1.80;99.90
43089;DHT22;28709;52.030;5.652;2023-02-28T01:12:49;1.70;99.90
43089;DHT22;28709;52.030;5.652;2023-02-28T01:15:15;1.80;99.90
43089;DHT22;28709;52.030;5.652;2023-02-28T01:17:41;1.70;99.90
43089;DHT22;28709;52.030;5.652;2023-02-28T01:20:07;1.70;99.90
43089;DHT22;28709;52.030;5.652;2023-02-28T01:22:34;1.70;99.90
43089;DHT22;28709;52.030;5.652;2023-02-28T01:25:00;1.80;99.90
43089;DHT22;28709;52.030;5.652;2023-02-28T01:27:26;1.80;99.90
43089;DHT22;28709;52.030;5.652;2023-02-28T01:29:52;1.80;99.90
43089;DHT22;28709;52.030;5.652;2023-02-28T01:32:17;1.80;99.90
43089;DHT22;28709;52.030;5.652;2023-02-28T01:34:43;1.80;99.90
43089;DHT22;28709;52.030;5.652;2023-02-28T01:37:09;1.80;99.90
43089;DHT22;28709;52.030;5.652;2023-02-28T01:39:34;1.80;99.90
43089;DHT22;28709;52.030;5.652;2023-02-28T01:42:00;1.90;99.90
43089;DHT22;28709;52.030;5.652;2023-02-28T01:47:37;1.90;99.90
43089;DHT22;28709;52.030;5.652;2023-02-28T01:50:07;1.90;99.90
43089;DHT22;28709;52.030;5.652;2023-02-28T01:52:34;2.00;99.90
43089;DHT22;28709;52.030;5.652;2023-02-28T01:55:02;2.00;99.90
43089;DHT22;28709;52.030;5.652;2023-02-28T01:57:34;2.00;99.90
43089;DHT22;28709;52.030;5.652;2023-02-28T02:00:09;2.10;99.90
43089;DHT22;28709;52.030;5.652;2023-02-28T02:02:36;2.10;99.90
43089;DHT22;28709;52.030;5.652;2023-02-28T02:05:15;2.10;99.90
43089;DHT22;28709;52.030;5.652;2023-02-28T02:07:43;2.10;99.90
43089;DHT22;28709;52.030;5.652;2023-02-28T02:12:56;2.20;99.90
43089;DHT22;28709;52.030;5.652;2023-02-28T02:18:14;2.30;99.90
43089;DHT22;28709;52.030;5.652;2023-02-28T02:29:31;2.20;99.90
43089;DHT22;28709;52.030;5.652;2023-02-28T02:34:42;2.20;99.90
43089;DHT22;28709;52.030;5.652;2023-02-28T02:40:25;2.20;99.90
43089;DHT22;28709;52.030;5.652;2023-02-28T02:43:01;2.20;99.90
43089;DHT22;28709;52.030;5.652;2023-02-28T02:45:37;2.20;99.90
43089;DHT22;28709;52.030;5.652;2023-02-28T02:48:08;2.20;99.90
43089;DHT22;28709;52.030;5.652;2023-02-28T02:50:48;2.20;99.90
43089;DHT22;28709;52.030;5.652;2023-02-28T02:53:16;2.20;99.90
43089;DHT22;28709;52.030;5.652;2023-02-28T02:55:46;2.30;99.90
43089;DHT22;28709;52.030;5.652;2023-02-28T02:58:16;2.20;99.90
43089;DHT22;28709;52.030;5.652;2023-02-28T03:00:47;2.20;99.90
43089;DHT22;28709;52.030;5.652;2023-02-28T03:03:16;2.20;99.90
43089;DHT22;28709;52.030;5.652;2023-02-28T03:05:48;2.20;99.90
43089;DHT22;28709;52.030;5.652;2023-02-28T03:08:14;2.20;99.90
43089;DHT22;28709;52.030;5.652;2023-02-28T03:10:45;2.20;99.90
43089;DHT22;28709;52.030;5.652;2023-02-28T03:19:17;2.20;99.90
43089;DHT22;28709;52.030;5.652;2023-02-28T03:24:31;2.10;99.90
43089;DHT22;28709;52.030;5.652;2023-02-28T03:27:06;2.10;99.90
43089;DHT22;28709;52.030;5.652;2023-02-28T03:29:37;2.20;99.90
43089;DHT22;28709;52.030;5.652;2023-02-28T03:32:14;2.10;99.90
43089;DHT22;28709;52.030;5.652;2023-02-28T03:34:50;2.20;99.90
43089;DHT22;28709;52.030;5.652;2023-02-28T03:37:22;2.10;99.90
43089;DHT22;28709;52.030;5.652;2023-02-28T03:39:55;2.20;99.90
43089;DHT22;28709;52.030;5.652;2023-02-28T03:42:25;2.20;99.90
43089;DHT22;28709;52.030;5.652;2023-02-28T03:44:57;2.20;99.90
43089;DHT22;28709;52.030;5.652;2023-02-28T03:47:29;2.20;99.90
43089;DHT22;28709;52.030;5.652;2023-02-28T03:52:28;2.20;99.90
43089;DHT22;28709;52.030;5.652;2023-02-28T03:55:01;2.20;99.90
43089;DHT22;28709;52.030;5.652;2023-02-28T03:58:05;2.20;99.90
43089;DHT22;28709;52.030;5.652;2023-02-28T04:00:37;2.20;99.90
43089;DHT22;28709;52.030;5.652;2023-02-28T04:03:04;2.20;99.90
43089;DHT22;28709;52.030;5.652;2023-02-28T04:05:30;2.20;99.90
43089;DHT22;28709;52.030;5.652;2023-02-28T04:08:07;2.10;99.90
43089;DHT22;28709;52.030;5.652;2023-02-28T04:10:33;2.10;99.90
43089;DHT22;28709;52.030;5.652;2023-02-28T04:12:59;2.10;99.90
43089;DHT22;28709;52.030;5.652;2023-02-28T04:15:25;2.00;99.90
43089;DHT22;28709;52.030;5.652;2023-02-28T04:17:52;2.00;99.90
43089;DHT22;28709;52.030;5.652;2023-02-28T04:20:18;2.00;99.90
43089;DHT22;28709;52.030;5.652;2023-02-28T04:22:44;1.90;99.90
43089;DHT22;28709;52.030;5.652;2023-02-28T04:25:09;1.90;99.90
43089;DHT22;28709;52.030;5.652;2023-02-28T04:27:35;1.90;99.90
43089;DHT22;28709;52.030;5.652;2023-02-28T04:30:01;1.90;99.90
43089;DHT22;28709;52.030;5.652;2023-02-28T04:32:28;1.90;99.90
43089;DHT22;28709;52.030;5.652;2023-02-28T04:34:53;1.80;99.90
43089;DHT22;28709;52.030;5.652;2023-02-28T04:37:19;1.80;99.90
43089;DHT22;28709;52.030;5.652;2023-02-28T04:39:44;1.80;99.90
43089;DHT22;28709;52.030;5.652;2023-02-28T04:42:11;1.80;99.90
43089;DHT22;28709;52.030;5.652;2023-02-28T04:44:36;1.80;99.90
43089;DHT22;28709;52.030;5.652;2023-02-28T04:47:02;1.80;99.90
43089;DHT22;28709;52.030;5.652;2023-02-28T04:49:28;1.80;99.90
43089;DHT22;28709;52.030;5.652;2023-02-28T04:51:54;1.80;99.90
43089;DHT22;28709;52.030;5.652;2023-02-28T04:54:20;1.80;99.90
43089;DHT22;28709;52.030;5.652;2023-02-28T04:56:45;1.80;99.90
43089;DHT22;28709;52.030;5.652;2023-02-28T04:59:11;1.80;99.90
43089;DHT22;28709;52.030;5.652;2023-02-28T05:01:37;1.80;99.90
43089;DHT22;28709;52.030;5.652;2023-02-28T05:04:03;1.70;99.90
43089;DHT22;28709;52.030;5.652;2023-02-28T05:06:31;1.70;99.90
43089;DHT22;28709;52.030;5.652;2023-02-28T05:08:57;1.70;99.90
43089;DHT22;28709;52.030;5.652;2023-02-28T05:11:26;1.60;99.90
43089;DHT22;28709;52.030;5.652;2023-02-28T05:13:52;1.70;99.90
43089;DHT22;28709;52.030;5.652;2023-02-28T05:16:19;1.70;99.90
43089;DHT22;28709;52.030;5.652;2023-02-28T05:18:45;1.70;99.90
43089;DHT22;28709;52.030;5.652;2023-02-28T05:21:29;1.70;99.90
43089;DHT22;28709;52.030;5.652;2023-02-28T05:23:56;1.70;99.90
43089;DHT22;28709;52.030;5.652;2023-02-28T05:26:23;1.70;99.90
43089;DHT22;28709;52.030;5.652;2023-02-28T05:28:49;1.70;99.90
43089;DHT22;28709;52.030;5.652;2023-02-28T05:31:14;1.70;99.90
43089;DHT22;28709;52.030;5.652;2023-02-28T05:33:40;1.60;99.90
43089;DHT22;28709;52.030;5.652;2023-02-28T05:36:06;1.60;99.90
43089;DHT22;28709;52.030;5.652;2023-02-28T05:38:32;1.70;99.90
43089;DHT22;28709;52.030;5.652;2023-02-28T05:40:58;1.70;99.90
43089;DHT22;28709;52.030;5.652;2023-02-28T05:43:24;1.70;99.90
43089;DHT22;28709;52.030;5.652;2023-02-28T05:45:49;1.60;99.90
43089;DHT22;28709;52.030;5.652;2023-02-28T05:48:15;1.60;99.90
43089;DHT22;28709;52.030;5.652;2023-02-28T05:50:42;1.60;99.90
43089;DHT22;28709;52.030;5.652;2023-02-28T05:53:10;1.60;99.90
43089;DHT22;28709;52.030;5.652;2023-02-28T05:55:35;1.60;99.90
43089;DHT22;28709;52.030;5.652;2023-02-28T05:58:02;1.50;99.90
43089;DHT22;28709;52.030;5.652;2023-02-28T06:00:28;1.60;99.90
43089;DHT22;28709;52.030;5.652;2023-02-28T06:02:53;1.60;99.90
43089;DHT22;28709;52.030;5.652;2023-02-28T06:05:22;1.60;99.90
43089;DHT22;28709;52.030;5.652;2023-02-28T06:07:47;1.60;99.90
43089;DHT22;28709;52.030;5.652;2023-02-28T06:10:13;1.60;99.90
43089;DHT22;28709;52.030;5.652;2023-02-28T06:12:39;1.60;99.90
43089;DHT22;28709;52.030;5.652;2023-02-28T06:15:07;1.70;99.90
43089;DHT22;28709;52.030;5.652;2023-02-28T06:17:33;1.60;99.90
43089;DHT22;28709;52.030;5.652;2023-02-28T06:19:59;1.70;99.90
43089;DHT22;28709;52.030;5.652;2023-02-28T06:22:24;1.70;99.90
43089;DHT22;28709;52.030;5.652;2023-02-28T06:24:50;1.70;99.90
43089;DHT22;28709;52.030;5.652;2023-02-28T06:27:15;1.70;99.90
43089;DHT22;28709;52.030;5.652;2023-02-28T06:29:41;1.70;99.90
43089;DHT22;28709;52.030;5.652;2023-02-28T06:32:07;1.70;99.90
43089;DHT22;28709;52.030;5.652;2023-02-28T06:34:33;1.70;99.90
43089;DHT22;28709;52.030;5.652;2023-02-28T06:37:01;1.70;99.90
43089;DHT22;28709;52.030;5.652;2023-02-28T06:39:28;1.60;99.90
43089;DHT22;28709;52.030;5.652;2023-02-28T06:41:53;1.70;99.90
43089;DHT22;28709;52.030;5.652;2023-02-28T06:44:19;1.60;99.90
43089;DHT22;28709;52.030;5.652;2023-02-28T06:46:45;1.70;99.90
43089;DHT22;28709;52.030;5.652;2023-02-28T06:49:11;1.70;99.90
43089;DHT22;28709;52.030;5.652;2023-02-28T06:51:41;1.70;99.90
43089;DHT22;28709;52.030;5.652;2023-02-28T06:54:07;1.80;99.90
43089;DHT22;28709;52.030;5.652;2023-02-28T06:56:37;1.80;99.90
43089;DHT22;28709;52.030;5.652;2023-02-28T06:59:03;1.90;99.90
43089;DHT22;28709;52.030;5.652;2023-02-28T07:01:29;1.90;99.90
43089;DHT22;28709;52.030;5.652;2023-02-28T07:03:57;2.00;99.90
43089;DHT22;28709;52.030;5.652;2023-02-28T07:06:22;2.00;99.90
43089;DHT22;28709;52.030;5.652;2023-02-28T07:08:50;2.10;99.90
43089;DHT22;28709;52.030;5.652;2023-02-28T07:11:16;2.10;99.90
43089;DHT22;28709;52.030;5.652;2023-02-28T07:13:42;2.20;99.90
43089;DHT22;28709;52.030;5.652;2023-02-28T07:16:10;2.30;99.90
43089;DHT22;28709;52.030;5.652;2023-02-28T07:18:36;2.40;99.90
43089;DHT22;28709;52.030;5.652;2023-02-28T07:21:04;2.50;99.90
43089;DHT22;28709;52.030;5.652;2023-02-28T07:23:30;2.60;99.90
43089;DHT22;28709;52.030;5.652;2023-02-28T07:25:56;2.60;99.90
43089;DHT22;28709;52.030;5.652;2023-02-28T07:28:22;2.70;99.90
43089;DHT22;28709;52.030;5.652;2023-02-28T07:30:47;2.80;99.90
43089;DHT22;28709;52.030;5.652;2023-02-28T07:33:13;2.90;99.90
43089;DHT22;28709;52.030;5.652;2023-02-28T07:35:39;2.90;99.90
43089;DHT22;28709;52.030;5.652;2023-02-28T07:38:05;2.90;99.90
43089;DHT22;28709;52.030;5.652;2023-02-28T07:40:33;2.90;99.90
43089;DHT22;28709;52.030;5.652;2023-02-28T07:43:00;2.90;99.90
43089;DHT22;28709;52.030;5.652;2023-02-28T07:45:27;3.00;99.90
43089;DHT22;28709;52.030;5.652;2023-02-28T07:47:54;3.00;99.90
43089;DHT22;28709;52.030;5.652;2023-02-28T07:50:20;3.00;99.90
43089;DHT22;28709;52.030;5.652;2023-02-28T07:52:45;3.10;99.90
43089;DHT22;28709;52.030;5.652;2023-02-28T07:55:11;3.10;99.90
43089;DHT22;28709;52.030;5.652;2023-02-28T07:57:37;3.20;99.90
43089;DHT22;28709;52.030;5.652;2023-02-28T08:00:09;3.20;99.90
43089;DHT22;28709;52.030;5.652;2023-02-28T08:02:35;3.20;99.90
43089;DHT22;28709;52.030;5.652;2023-02-28T08:05:02;3.20;99.90
43089;DHT22;28709;52.030;5.652;2023-02-28T08:07:27;3.20;99.90
43089;DHT22;28709;52.030;5.652;2023-02-28T08:09:53;3.30;99.90
43089;DHT22;28709;52.030;5.652;2023-02-28T08:12:19;3.30;99.90
43089;DHT22;28709;52.030;5.652;2023-02-28T08:14:45;3.40;99.90
43089;DHT22;28709;52.030;5.652;2023-02-28T08:17:11;3.50;99.90
43089;DHT22;28709;52.030;5.652;2023-02-28T08:19:37;3.60;99.90
43089;DHT22;28709;52.030;5.652;2023-02-28T08:22:03;3.60;99.90
43089;DHT22;28709;52.030;5.652;2023-02-28T08:24:28;3.80;99.90
43089;DHT22;28709;52.030;5.652;2023-02-28T08:26:55;4.00;99.90
43089;DHT22;28709;52.030;5.652;2023-02-28T08:29:20;4.20;99.90
43089;DHT22;28709;52.030;5.652;2023-02-28T08:31:46;4.30;99.90
43089;DHT22;28709;52.030;5.652;2023-02-28T08:34:13;4.40;99.90
43089;DHT22;28709;52.030;5.652;2023-02-28T08:36:40;4.70;99.90
43089;DHT22;28709;52.030;5.652;2023-02-28T08:39:06;5.10;99.90
43089;DHT22;28709;52.030;5.652;2023-02-28T08:41:32;5.30;99.90
43089;DHT22;28709;52.030;5.652;2023-02-28T08:43:58;5.20;99.90
43089;DHT22;28709;52.030;5.652;2023-02-28T08:46:24;5.00;99.10
43089;DHT22;28709;52.030;5.652;2023-02-28T08:48:56;5.00;98.60
43089;DHT22;28709;52.030;5.652;2023-02-28T08:51:28;5.00;97.60
43089;DHT22;28709;52.030;5.652;2023-02-28T08:53:55;4.90;95.40
43089;DHT22;28709;52.030;5.652;2023-02-28T08:56:21;4.90;94.20
43089;DHT22;28709;52.030;5.652;2023-02-28T08:58:48;5.00;94.30
43089;DHT22;28709;52.030;5.652;2023-02-28T09:01:21;5.60;93.00
43089;DHT22;28709;52.030;5.652;2023-02-28T09:03:50;6.30;91.40
43089;DHT22;28709;52.030;5.652;2023-02-28T09:06:17;6.60;89.60
43089;DHT22;28709;52.030;5.652;2023-02-28T09:08:43;6.60;88.50
43089;DHT22;28709;52.030;5.652;2023-02-28T09:11:09;6.80;88.80
43089;DHT22;28709;52.030;5.652;2023-02-28T09:13:36;7.20;85.80
43089;DHT22;28709;52.030;5.652;2023-02-28T09:16:03;7.60;86.80
43089;DHT22;28709;52.030;5.652;2023-02-28T09:18:29;8.10;85.90
43089;DHT22;28709;52.030;5.652;2023-02-28T09:20:56;8.40;78.60
43089;DHT22;28709;52.030;5.652;2023-02-28T09:23:23;8.20;78.30
43089;DHT22;28709;52.030;5.652;2023-02-28T09:25:51;8.30;78.20
43089;DHT22;28709;52.030;5.652;2023-02-28T09:28:17;8.50;76.30
43089;DHT22;28709;52.030;5.652;2023-02-28T09:30:48;8.50;74.00
43089;DHT22;28709;52.030;5.652;2023-02-28T09:33:14;8.40;73.30
43089;DHT22;28709;52.030;5.652;2023-02-28T09:35:41;8.40;72.00
43089;DHT22;28709;52.030;5.652;2023-02-28T09:38:08;8.40;71.20
43089;DHT22;28709;52.030;5.652;2023-02-28T09:40:44;8.40;70.60
43089;DHT22;28709;52.030;5.652;2023-02-28T09:43:14;8.50;68.80
43089;DHT22;28709;52.030;5.652;2023-02-28T09:45:43;8.30;67.50
43089;DHT22;28709;52.030;5.652;2023-02-28T09:48:18;8.20;68.20
43089;DHT22;28709;52.030;5.652;2023-02-28T09:50:49;8.50;68.50
43089;DHT22;28709;52.030;5.652;2023-02-28T09:53:29;8.90;68.50
43089;DHT22;28709;52.030;5.652;2023-02-28T09:56:14;9.00;66.30
43089;DHT22;28709;52.030;5.652;2023-02-28T09:58:51;9.20;67.10
43089;DHT22;28709;52.030;5.652;2023-02-28T10:01:21;9.20;64.30
43089;DHT22;28709;52.030;5.652;2023-02-28T10:03:55;9.10;64.50
43089;DHT22;28709;52.030;5.652;2023-02-28T10:06:28;9.10;63.70
43089;DHT22;28709;52.030;5.652;2023-02-28T10:09:04;8.90;63.20
43089;DHT22;28709;52.030;5.652;2023-02-28T10:11:36;9.10;63.90
43089;DHT22;28709;52.030;5.652;2023-02-28T10:14:21;9.20;63.40
43089;DHT22;28709;52.030;5.652;2023-02-28T10:17:04;9.40;63.60
43089;DHT22;28709;52.030;5.652;2023-02-28T10:22:32;10.10;61.40
43089;DHT22;28709;52.030;5.652;2023-02-28T10:25:00;10.10;61.50
43089;DHT22;28709;52.030;5.652;2023-02-28T10:27:32;10.50;61.30
43089;DHT22;28709;52.030;5.652;2023-02-28T10:30:01;10.80;59.40
43089;DHT22;28709;52.030;5.652;2023-02-28T10:32:32;10.70;58.90
43089;DHT22;28709;52.030;5.652;2023-02-28T10:37:46;11.10;58.30
43089;DHT22;28709;52.030;5.652;2023-02-28T10:40:33;11.40;59.40
43089;DHT22;28709;52.030;5.652;2023-02-28T10:43:06;11.40;57.70
43089;DHT22;28709;52.030;5.652;2023-02-28T10:46:13;11.20;57.60
43089;DHT22;28709;52.030;5.652;2023-02-28T10:48:45;11.00;58.70
43089;DHT22;28709;52.030;5.652;2023-02-28T10:51:15;11.30;58.90
43089;DHT22;28709;52.030;5.652;2023-02-28T10:56:14;11.10;59.50
43089;DHT22;28709;52.030;5.652;2023-02-28T10:58:49;11.40;59.00
43089;DHT22;28709;52.030;5.652;2023-02-28T11:03:43;11.90;58.10
43089;DHT22;28709;52.030;5.652;2023-02-28T11:08:48;12.00;58.30
43089;DHT22;28709;52.030;5.652;2023-02-28T11:11:15;12.20;57.40
43089;DHT22;28709;52.030;5.652;2023-02-28T11:13:44;12.20;57.70
43089;DHT22;28709;52.030;5.652;2023-02-28T11:16:12;12.50;57.60
43089;DHT22;28709;52.030;5.652;2023-02-28T11:18:55;12.80;55.50
43089;DHT22;28709;52.030;5.652;2023-02-28T11:21:26;12.40;55.60
43089;DHT22;28709;52.030;5.652;2023-02-28T11:24:04;11.90;56.00
43089;DHT22;28709;52.030;5.652;2023-02-28T11:26:42;11.70;56.70
43089;DHT22;28709;52.030;5.652;2023-02-28T11:29:32;11.90;56.90
43089;DHT22;28709;52.030;5.652;2023-02-28T11:32:11;12.20;57.20
43089;DHT22;28709;52.030;5.652;2023-02-28T11:34:38;13.00;55.70
43089;DHT22;28709;52.030;5.652;2023-02-28T11:37:09;13.20;55.20
43089;DHT22;28709;52.030;5.652;2023-02-28T11:39:36;13.30;54.60
43089;DHT22;28709;52.030;5.652;2023-02-28T11:44:58;13.30;55.00
43089;DHT22;28709;52.030;5.652;2023-02-28T11:53:22;12.90;54.20
43089;DHT22;28709;52.030;5.652;2023-02-28T11:55:54;12.40;55.10
43089;DHT22;28709;52.030;5.652;2023-02-28T12:06:31;11.10;55.70
43089;DHT22;28709;52.030;5.652;2023-02-28T12:14:44;10.70;55.60
43089;DHT22;28709;52.030;5.652;2023-02-28T12:28:15;11.80;54.50
43089;DHT22;28709;52.030;5.652;2023-02-28T12:33:53;12.20;54.30
43089;DHT22;28709;52.030;5.652;2023-02-28T12:36:21;12.40;53.40
43089;DHT22;28709;52.030;5.652;2023-02-28T12:38:49;12.50;54.10
43089;DHT22;28709;52.030;5.652;2023-02-28T12:41:53;12.80;54.30
43089;DHT22;28709;52.030;5.652;2023-02-28T12:44:19;13.20;53.20
43089;DHT22;28709;52.030;5.652;2023-02-28T12:46:51;13.50;52.80
43089;DHT22;28709;52.030;5.652;2023-02-28T12:49:25;13.60;52.70
43089;DHT22;28709;52.030;5.652;2023-02-28T12:51:56;13.70;51.60
43089;DHT22;28709;52.030;5.652;2023-02-28T12:54:26;12.90;52.60
43089;DHT22;28709;52.030;5.652;2023-02-28T12:57:07;12.50;52.90
43089;DHT22;28709;52.030;5.652;2023-02-28T12:59:49;12.50;53.60
43089;DHT22;28709;52.030;5.652;2023-02-28T13:08:20;13.50;52.60
43089;DHT22;28709;52.030;5.652;2023-02-28T13:10:50;14.10;51.20
43089;DHT22;28709;52.030;5.652;2023-02-28T13:13:28;13.80;50.90
43089;DHT22;28709;52.030;5.652;2023-02-28T13:16:06;13.50;51.40
43089;DHT22;28709;52.030;5.652;2023-02-28T13:21:04;13.20;51.90
43089;DHT22;28709;52.030;5.652;2023-02-28T13:26:22;13.80;51.40
43089;DHT22;28709;52.030;5.652;2023-02-28T13:31:14;13.20;50.60
43089;DHT22;28709;52.030;5.652;2023-02-28T13:36:25;12.40;51.40
43089;DHT22;28709;52.030;5.652;2023-02-28T13:38:54;12.30;51.80
43089;DHT22;28709;52.030;5.652;2023-02-28T13:44:03;12.20;51.50
43089;DHT22;28709;52.030;5.652;2023-02-28T13:46:29;12.20;52.00
43089;DHT22;28709;52.030;5.652;2023-02-28T13:48:55;12.40;51.80
43089;DHT22;28709;52.030;5.652;2023-02-28T13:51:42;12.50;52.00
43089;DHT22;28709;52.030;5.652;2023-02-28T14:02:34;11.50;52.10
43089;DHT22;28709;52.030;5.652;2023-02-28T14:07:46;9.70;53.50
43089;DHT22;28709;52.030;5.652;2023-02-28T14:18:33;8.10;56.00
43089;DHT22;28709;52.030;5.652;2023-02-28T14:24:02;7.60;57.10
43089;DHT22;28709;52.030;5.652;2023-02-28T14:32:47;7.40;57.70
43089;DHT22;28709;52.030;5.652;2023-02-28T14:38:06;7.20;58.40
43089;DHT22;28709;52.030;5.652;2023-02-28T14:40:34;7.10;58.50
43089;DHT22;28709;52.030;5.652;2023-02-28T14:43:06;7.10;58.50
43089;DHT22;28709;52.030;5.652;2023-02-28T14:45:34;7.10;58.60
43089;DHT22;28709;52.030;5.652;2023-02-28T14:48:02;7.00;58.70
43089;DHT22;28709;52.030;5.652;2023-02-28T14:50:35;7.10;59.30
43089;DHT22;28709;52.030;5.652;2023-02-28T14:53:01;7.00;59.10
43089;DHT22;28709;52.030;5.652;2023-02-28T14:55:34;7.00;59.50
43089;DHT22;28709;52.030;5.652;2023-02-28T14:58:04;7.00;59.50
43089;DHT22;28709;52.030;5.652;2023-02-28T15:00:34;6.90;59.60
43089;DHT22;28709;52.030;5.652;2023-02-28T15:03:11;6.90;60.50
43089;DHT22;28709;52.030;5.652;2023-02-28T15:05:47;6.90;60.10
43089;DHT22;28709;52.030;5.652;2023-02-28T15:08:17;6.90;60.00
43089;DHT22;28709;52.030;5.652;2023-02-28T15:10:46;6.80;60.30
43089;DHT22;28709;52.030;5.652;2023-02-28T15:13:15;6.80;60.30
43089;DHT22;28709;52.030;5.652;2023-02-28T15:16:00;6.80;60.40
43089;DHT22;28709;52.030;5.652;2023-02-28T15:18:46;6.70;61.20
43089;DHT22;28709;52.030;5.652;2023-02-28T15:21:19;6.70;60.80
43089;DHT22;28709;52.030;5.652;2023-02-28T15:23:51;6.70;61.00
43089;DHT22;28709;52.030;5.652;2023-02-28T15:26:21;6.70;61.30
43089;DHT22;28709;52.030;5.652;2023-02-28T15:29:00;6.60;61.30
43089;DHT22;28709;52.030;5.652;2023-02-28T15:31:40;6.60;61.40
43089;DHT22;28709;52.030;5.652;2023-02-28T15:34:12;6.60;61.60
43089;DHT22;28709;52.030;5.652;2023-02-28T15:36:43;6.60;61.90
43089;DHT22;28709;52.030;5.652;2023-02-28T15:39:26;6.60;62.20
43089;DHT22;28709;52.030;5.652;2023-02-28T15:42:11;6.60;62.50
43089;DHT22;28709;52.030;5.652;2023-02-28T15:44:38;6.60;62.60
43089;DHT22;28709;52.030;5.652;2023-02-28T15:47:16;6.60;62.40
43089;DHT22;28709;52.030;5.652;2023-02-28T15:50:10;6.60;62.30
43089;DHT22;28709;52.030;5.652;2023-02-28T15:52:40;6.50;62.30
43089;DHT22;28709;52.030;5.652;2023-02-28T15:57:46;6.50;62.40
43089;DHT22;28709;52.030;5.652;2023-02-28T16:00:15;6.50;62.40
43089;DHT22;28709;52.030;5.652;2023-02-28T16:02:41;6.40;62.60
43089;DHT22;28709;52.030;5.652;2023-02-28T16:07:36;6.40;62.80
43089;DHT22;28709;52.030;5.652;2023-02-28T16:10:04;6.30;62.70
43089;DHT22;28709;52.030;5.652;2023-02-28T16:12:31;6.30;62.80
43089;DHT22;28709;52.030;5.652;2023-02-28T16:15:01;6.30;62.90
43089;DHT22;28709;52.030;5.652;2023-02-28T16:17:38;6.30;62.90
43089;DHT22;28709;52.030;5.652;2023-02-28T16:20:25;6.30;62.90
43089;DHT22;28709;52.030;5.652;2023-02-28T16:22:52;6.30;63.10
43089;DHT22;28709;52.030;5.652;2023-02-28T16:25:20;6.30;63.10
43089;DHT22;28709;52.030;5.652;2023-02-28T16:27:50;6.30;63.20
43089;DHT22;28709;52.030;5.652;2023-02-28T16:30:26;6.20;63.10
43089;DHT22;28709;52.030;5.652;2023-02-28T16:32:54;6.20;63.40
43089;DHT22;28709;52.030;5.652;2023-02-28T16:35:21;6.10;63.50
43089;DHT22;28709;52.030;5.652;2023-02-28T16:37:47;6.10;63.70
43089;DHT22;28709;52.030;5.652;2023-02-28T16:40:18;6.10;63.80
43089;DHT22;28709;52.030;5.652;2023-02-28T16:42:46;6.00;63.80
43089;DHT22;28709;52.030;5.652;2023-02-28T16:45:25;6.00;63.60
43089;DHT22;28709;52.030;5.652;2023-02-28T16:47:51;5.90;63.20
43089;DHT22;28709;52.030;5.652;2023-02-28T16:50:22;5.80;63.20
43089;DHT22;28709;52.030;5.652;2023-02-28T16:52:49;5.80;63.20
43089;DHT22;28709;52.030;5.652;2023-02-28T16:55:17;5.80;63.40
43089;DHT22;28709;52.030;5.652;2023-02-28T16:57:44;5.70;63.40
43089;DHT22;28709;52.030;5.652;2023-02-28T17:00:13;5.70;63.50
43089;DHT22;28709;52.030;5.652;2023-02-28T17:02:39;5.60;63.50
43089;DHT22;28709;52.030;5.652;2023-02-28T17:05:05;5.60;63.80
43089;DHT22;28709;52.030;5.652;2023-02-28T17:07:32;5.50;63.90
43089;DHT22;28709;52.030;5.652;2023-02-28T17:09:58;5.40;64.00
43089;DHT22;28709;52.030;5.652;2023-02-28T17:12:25;5.40;64.20
43089;DHT22;28709;52.030;5.652;2023-02-28T17:14:51;5.30;64.40
43089;DHT22;28709;52.030;5.652;2023-02-28T17:17:19;5.20;64.40
43089;DHT22;28709;52.030;5.652;2023-02-28T17:19:46;5.20;64.60
43089;DHT22;28709;52.030;5.652;2023-02-28T17:22:12;5.10;64.70
43089;DHT22;28709;52.030;5.652;2023-02-28T17:24:38;5.10;64.90
43089;DHT22;28709;52.030;5.652;2023-02-28T17:27:03;5.00;65.00
43089;DHT22;28709;52.030;5.652;2023-02-28T17:29:29;4.90;65.10
43089;DHT22;28709;52.030;5.652;2023-02-28T17:31:55;4.90;65.30
43089;DHT22;28709;52.030;5.652;2023-02-28T17:34:21;4.80;65.40
43089;DHT22;28709;52.030;5.652;2023-02-28T17:36:48;4.80;65.60
43089;DHT22;28709;52.030;5.652;2023-02-28T17:39:16;4.70;65.70
43089;DHT22;28709;52.030;5.652;2023-02-28T17:41:52;4.60;65.90
43089;DHT22;28709;52.030;5.652;2023-02-28T17:44:19;4.50;66.10
43089;DHT22;28709;52.030;5.652;2023-02-28T17:46:45;4.50;66.30
43089;DHT22;28709;52.030;5.652;2023-02-28T17:49:11;4.40;66.50
43089;DHT22;28709;52.030;5.652;2023-02-28T17:51:37;4.40;66.70
43089;DHT22;28709;52.030;5.652;2023-02-28T17:54:02;4.30;66.80
43089;DHT22;28709;52.030;5.652;2023-02-28T17:56:28;4.20;67.00
43089;DHT22;28709;52.030;5.652;2023-02-28T17:58:55;4.20;67.20
43089;DHT22;28709;52.030;5.652;2023-02-28T18:01:22;4.10;67.40
43089;DHT22;28709;52.030;5.652;2023-02-28T18:03:50;4.00;67.70
43089;DHT22;28709;52.030;5.652;2023-02-28T18:06:28;3.90;67.80
43089;DHT22;28709;52.030;5.652;2023-02-28T18:08:55;3.90;68.20
43089;DHT22;28709;52.030;5.652;2023-02-28T18:11:22;3.80;68.40
43089;DHT22;28709;52.030;5.652;2023-02-28T18:13:53;3.70;68.50
43089;DHT22;28709;52.030;5.652;2023-02-28T18:16:20;3.70;68.70
43089;DHT22;28709;52.030;5.652;2023-02-28T18:18:49;3.60;68.80